Time;durP1;ratioP1;P1;durP2;ratioP2;P2;SDS_P1;SDS_P2;PMS_P1;PMS_P2;Temp;Humidity;BMP_temperature;BMP_pressure;BME280_temperature;BME280_humidity;BME280_pressure;Samples;Min_cycle;Max_cycle;Signal;HPM_P1;HPM_P2
2021/03/08 00:00:17;;;;;;;8.47;5.87;;;2.90;99.90;;;-141.85;100.00;63675.41;5016414;28;20231;-63
2021/03/08 00:02:46;;;;;;;10.53;7.90;;;2.80;99.90;;;-141.85;100.00;63675.41;5016129;28;20226;-64
2021/03/08 00:05:15;;;;;;;11.53;7.33;;;2.80;99.90;;;-141.85;100.00;63675.41;5016086;28;20199;-63
2021/03/08 00:07:46;;;;;;;10.80;6.80;;;2.70;99.90;;;-141.85;100.00;63675.41;5015786;28;20204;-63
2021/03/08 00:10:15;;;;;;;10.17;6.83;;;2.70;99.90;;;-141.85;100.00;63675.41;5015515;28;20216;-63
2021/03/08 00:12:43;;;;;;;7.60;6.60;;;2.80;99.90;;;-141.85;100.00;63675.41;5015418;28;20291;-63
2021/03/08 00:15:13;;;;;;;7.53;5.40;;;2.80;99.90;;;-141.85;100.00;63675.41;5016123;28;20294;-63
2021/03/08 00:17:41;;;;;;;7.50;5.27;;;2.80;99.90;;;-141.85;100.00;63675.41;5015829;28;20543;-62
2021/03/08 00:20:12;;;;;;;9.33;6.60;;;2.80;99.90;;;-141.85;100.00;63675.41;5015898;28;20210;-63
2021/03/08 00:22:41;;;;;;;7.77;6.10;;;2.80;99.90;;;-141.85;100.00;63675.41;5015909;28;20218;-62
2021/03/08 00:25:11;;;;;;;6.83;5.53;;;2.70;99.90;;;-141.85;100.00;63675.41;5015590;28;20620;-63
2021/03/08 00:27:38;;;;;;;8.07;5.43;;;2.80;99.90;;;-141.85;100.00;63675.41;5015497;28;20274;-62
2021/03/08 00:30:08;;;;;;;7.50;5.93;;;2.80;99.90;;;-141.85;100.00;63675.41;5015785;28;20288;-62
2021/03/08 00:32:36;;;;;;;7.03;5.77;;;2.90;99.90;;;-141.85;100.00;63675.41;5015918;28;20203;-62
2021/03/08 00:35:05;;;;;;;9.33;5.43;;;2.80;99.90;;;-141.85;100.00;63675.41;5015416;28;20326;-63
2021/03/08 00:37:33;;;;;;;7.90;5.80;;;2.80;99.90;;;-141.85;100.00;63675.41;5015673;28;20294;-63
2021/03/08 00:40:02;;;;;;;8.93;5.43;;;2.80;99.90;;;-141.85;100.00;63675.41;5015447;28;20205;-63
2021/03/08 00:42:30;;;;;;;7.20;5.47;;;2.80;99.90;;;-141.85;100.00;63675.41;5015389;28;20288;-63
2021/03/08 00:44:57;;;;;;;8.47;5.63;;;2.80;99.90;;;-141.85;100.00;63675.41;5015515;28;20244;-63
2021/03/08 00:47:25;;;;;;;8.23;5.50;;;2.80;99.90;;;-141.85;100.00;63675.41;5015663;28;20290;-63
2021/03/08 00:49:52;;;;;;;7.70;5.83;;;2.80;99.90;;;-141.85;100.00;63675.41;5014457;28;20223;-63
2021/03/08 00:52:19;;;;;;;7.90;5.63;;;2.70;99.90;;;-141.85;100.00;63675.41;5014901;28;20615;-63
2021/03/08 00:54:47;;;;;;;8.93;6.30;;;2.70;99.90;;;-141.85;100.00;63675.41;5015103;28;20726;-63
2021/03/08 00:57:14;;;;;;;7.40;6.17;;;2.60;99.90;;;-141.85;100.00;63675.41;5014909;28;20661;-63
2021/03/08 00:59:41;;;;;;;8.40;5.47;;;2.60;99.90;;;-141.85;100.00;63675.41;5015136;28;20203;-62
2021/03/08 01:02:08;;;;;;;7.77;6.00;;;2.60;99.90;;;-141.85;100.00;63675.41;5015299;28;20234;-62
2021/03/08 01:04:35;;;;;;;8.17;5.63;;;2.70;99.90;;;-141.85;100.00;63675.41;5015180;28;20206;-62
2021/03/08 01:07:03;;;;;;;8.40;6.27;;;2.70;99.90;;;-141.85;100.00;63675.41;5015102;28;20231;-63
2021/03/08 01:09:30;;;;;;;7.90;6.47;;;2.70;99.90;;;-141.85;100.00;63675.41;5015049;28;20318;-63
2021/03/08 01:11:58;;;;;;;9.30;6.13;;;2.60;99.90;;;-141.85;100.00;63675.41;5014748;28;20591;-63
2021/03/08 01:14:25;;;;;;;8.60;6.10;;;2.60;99.90;;;-141.85;100.00;63675.41;5014576;28;20240;-62
2021/03/08 01:16:52;;;;;;;9.23;6.33;;;2.60;99.90;;;-141.85;100.00;63675.41;5014968;28;20210;-62
2021/03/08 01:19:19;;;;;;;8.80;6.33;;;2.60;99.90;;;-141.85;100.00;63675.41;5014871;28;20214;-62
2021/03/08 01:21:46;;;;;;;7.77;6.03;;;2.50;99.90;;;-141.85;100.00;63675.41;5014302;28;20305;-64
2021/03/08 01:24:13;;;;;;;7.30;6.30;;;2.50;99.90;;;-141.85;100.00;63675.41;5014495;28;20671;-61
2021/03/08 01:26:40;;;;;;;7.93;6.27;;;2.50;99.90;;;-141.85;100.00;63675.41;5014433;28;20205;-62
2021/03/08 01:29:08;;;;;;;7.47;6.30;;;2.60;99.90;;;-141.85;100.00;63675.41;5014085;28;20294;-62
2021/03/08 01:31:35;;;;;;;8.67;6.83;;;2.60;99.90;;;-141.85;100.00;63675.41;5014301;28;20217;-63
2021/03/08 01:34:03;;;;;;;7.37;6.00;;;2.50;99.90;;;-141.85;100.00;63675.41;5014439;28;20202;-62
2021/03/08 01:36:29;;;;;;;9.03;6.40;;;2.40;99.90;;;-141.85;100.00;63675.41;5014090;28;20234;-62
2021/03/08 01:38:56;;;;;;;10.23;6.70;;;2.30;99.90;;;-141.85;100.00;63675.41;5014496;28;20289;-63
2021/03/08 01:41:24;;;;;;;8.70;6.90;;;2.40;99.90;;;-141.85;100.00;63675.41;5014131;28;20297;-63
2021/03/08 01:43:51;;;;;;;8.47;6.57;;;2.40;99.90;;;-141.85;100.00;63675.41;5013999;28;20209;-63
2021/03/08 01:46:19;;;;;;;10.97;7.13;;;2.50;99.90;;;-141.85;100.00;63675.41;5013982;28;20238;-64
2021/03/08 01:48:46;;;;;;;9.87;6.93;;;2.50;99.90;;;-141.85;100.00;63675.41;5014367;28;20226;-63
2021/03/08 01:51:14;;;;;;;9.60;7.17;;;2.60;99.90;;;-141.85;100.00;63675.41;5014126;28;20228;-63
2021/03/08 01:53:42;;;;;;;9.43;7.57;;;2.60;99.90;;;-141.85;100.00;63675.41;5013933;28;20211;-63
2021/03/08 01:56:10;;;;;;;9.83;7.77;;;2.70;99.90;;;-141.85;100.00;63675.41;5013901;28;20233;-62
2021/03/08 01:58:39;;;;;;;11.53;9.23;;;2.70;99.90;;;-141.85;100.00;63675.41;5013660;28;20298;-63
2021/03/08 02:01:07;;;;;;;17.27;11.57;;;2.70;99.90;;;-141.85;100.00;63675.41;5014038;28;20206;-62
2021/03/08 02:03:35;;;;;;;10.77;8.50;;;2.70;99.90;;;-141.85;100.00;63675.41;5014084;28;20289;-62
2021/03/08 02:10:11;;;;;;;11.67;8.30;;;2.80;99.90;;;-141.85;100.00;63675.41;5013510;28;20297;-62
2021/03/08 02:12:58;;;;;;;15.40;9.80;;;2.70;99.90;;;-141.85;100.00;63675.41;5013879;28;20267;-63
2021/03/08 02:15:38;;;;;;;14.07;9.83;;;2.60;99.90;;;-141.85;100.00;63675.41;5013830;28;20281;-62
2021/03/08 02:18:14;;;;;;;12.87;8.27;;;2.60;99.90;;;-141.85;100.00;63675.41;5014007;28;20306;-62
2021/03/08 02:21:14;;;;;;;14.30;8.83;;;2.50;99.90;;;-141.85;100.00;63675.41;5013902;28;20253;-63
2021/03/08 02:24:45;;;;;;;11.17;8.33;;;2.60;99.90;;;-141.85;100.00;63675.41;5013324;28;20220;-62
2021/03/08 02:27:33;;;;;;;10.83;8.10;;;2.60;99.90;;;-141.85;100.00;63675.41;5013423;28;20285;-62
2021/03/08 02:30:32;;;;;;;10.10;8.50;;;2.60;99.90;;;-141.85;100.00;63675.41;5013555;28;20234;-62
2021/03/08 02:33:04;;;;;;;12.37;8.63;;;2.50;99.90;;;-141.85;100.00;63675.41;5013312;28;20598;-63
2021/03/08 02:35:36;;;;;;;12.60;8.20;;;2.60;99.90;;;-141.85;100.00;63675.41;5013348;28;20234;-63
2021/03/08 02:38:07;;;;;;;10.63;8.30;;;2.60;99.90;;;-141.85;100.00;63675.41;5013153;28;20187;-62
2021/03/08 02:40:40;;;;;;;13.00;7.87;;;2.50;99.90;;;-141.85;100.00;63675.41;5013150;28;20221;-62
2021/03/08 02:43:20;;;;;;;10.97;8.50;;;2.50;99.90;;;-141.85;100.00;63675.41;5013410;28;20271;-62
2021/03/08 02:45:53;;;;;;;12.60;8.43;;;2.50;99.90;;;-141.85;100.00;63675.41;5013047;28;20214;-63
2021/03/08 02:48:24;;;;;;;13.20;8.73;;;2.50;99.90;;;-141.85;100.00;63675.41;5013461;28;20269;-62
2021/03/08 02:50:57;;;;;;;15.50;8.53;;;2.60;99.90;;;-141.85;100.00;63675.41;5013263;28;20273;-62
2021/03/08 02:53:31;;;;;;;12.63;8.17;;;2.50;99.90;;;-141.85;100.00;63675.41;5013488;28;20255;-63
2021/03/08 02:56:03;;;;;;;11.73;8.97;;;2.50;99.90;;;-141.85;100.00;63675.41;5012921;28;20225;-63
2021/03/08 02:58:34;;;;;;;12.63;9.33;;;2.40;99.90;;;-141.85;100.00;63675.41;5012866;28;20208;-63
2021/03/08 03:01:10;;;;;;;15.43;9.77;;;2.50;99.90;;;-141.85;100.00;63675.41;5013317;28;20190;-63
2021/03/08 03:03:43;;;;;;;13.70;9.47;;;2.40;99.90;;;-141.85;100.00;63675.41;5013479;28;20198;-62
2021/03/08 03:06:12;;;;;;;14.57;8.60;;;2.40;99.90;;;-141.85;100.00;63675.41;5013023;28;20219;-63
2021/03/08 03:08:42;;;;;;;13.47;9.07;;;2.50;99.90;;;-141.85;100.00;63675.41;5012991;28;20309;-62
2021/03/08 03:11:12;;;;;;;13.90;9.50;;;2.40;99.90;;;-141.85;100.00;63675.41;5012511;28;20736;-61
2021/03/08 03:13:44;;;;;;;11.50;9.20;;;2.50;99.90;;;-141.85;100.00;63675.41;5015533;28;20293;-63
2021/03/08 03:16:14;;;;;;;15.37;10.03;;;2.50;99.90;;;-141.85;100.00;63675.41;5017234;28;20601;-63
2021/03/08 03:18:51;;;;;;;11.53;8.83;;;2.40;99.90;;;-141.85;100.00;63675.41;5017120;28;20593;-63
2021/03/08 03:21:20;;;;;;;12.13;8.87;;;2.30;99.90;;;-141.85;100.00;63675.41;5016983;28;20193;-63
2021/03/08 03:23:52;;;;;;;13.57;10.00;;;2.30;99.90;;;-141.85;100.00;63675.41;5017333;28;20234;-62
2021/03/08 03:26:21;;;;;;;16.07;10.47;;;2.40;99.90;;;-141.85;100.00;63675.41;5017110;28;20305;-62
2021/03/08 03:28:50;;;;;;;15.20;10.63;;;2.50;99.90;;;-141.85;100.00;63675.41;5016454;28;20259;-62
2021/03/08 03:31:32;;;;;;;13.67;10.07;;;2.40;99.90;;;-141.85;100.00;63675.41;5016539;28;20581;-63
2021/03/08 03:34:01;;;;;;;13.17;9.53;;;2.40;99.90;;;-141.85;100.00;63675.41;5016643;28;20192;-63
2021/03/08 03:36:31;;;;;;;15.20;10.57;;;2.40;99.90;;;-141.85;100.00;63675.41;5015756;28;20233;-62
2021/03/08 03:38:59;;;;;;;13.23;9.60;;;2.40;99.90;;;-141.85;100.00;63675.41;5016049;28;20961;-63
2021/03/08 03:41:28;;;;;;;13.47;9.80;;;2.50;99.90;;;-141.85;100.00;63675.41;5016739;28;20203;-63
2021/03/08 03:43:55;;;;;;;17.17;10.70;;;2.60;99.90;;;-141.85;100.00;63675.41;5016550;28;20293;-62
2021/03/08 03:46:23;;;;;;;15.83;10.73;;;2.70;99.90;;;-141.85;100.00;63675.41;5016551;28;20213;-62
2021/03/08 03:48:51;;;;;;;17.43;11.63;;;2.60;99.90;;;-141.85;100.00;63675.41;5016578;28;20309;-63
2021/03/08 03:51:19;;;;;;;16.63;10.43;;;2.70;99.90;;;-141.85;100.00;63675.41;5016291;28;20230;-62
2021/03/08 03:53:46;;;;;;;16.23;11.17;;;2.60;99.90;;;-141.85;100.00;63675.41;5016387;28;20304;-63
2021/03/08 03:56:15;;;;;;;13.83;10.67;;;2.60;99.90;;;-141.85;100.00;63675.41;5016195;28;20285;-63
2021/03/08 03:58:52;;;;;;;13.50;10.30;;;2.60;99.90;;;-141.85;100.00;63675.41;5016274;28;20281;-63
2021/03/08 04:01:24;;;;;;;15.33;10.87;;;2.50;99.90;;;-141.85;100.00;63675.41;5017503;28;20252;-63
2021/03/08 04:04:00;;;;;;;15.53;11.37;;;2.50;99.90;;;-141.85;100.00;63675.41;5017689;28;20240;-63
2021/03/08 04:06:33;;;;;;;16.53;12.20;;;2.50;99.90;;;-141.85;100.00;63675.41;5017289;28;20289;-62
2021/03/08 04:09:04;;;;;;;17.57;12.97;;;2.50;99.90;;;-141.85;100.00;63675.41;5015831;28;20661;-62
2021/03/08 04:11:33;;;;;;;17.67;12.10;;;2.50;99.90;;;-141.85;100.00;63675.41;5016145;28;20216;-62
2021/03/08 04:14:03;;;;;;;18.40;12.50;;;2.40;99.90;;;-141.85;100.00;63675.41;5015703;28;20294;-62
2021/03/08 04:16:32;;;;;;;16.20;11.43;;;2.40;99.90;;;-141.85;100.00;63675.41;5015683;28;20198;-63
2021/03/08 04:19:03;;;;;;;17.57;11.47;;;2.40;99.90;;;-141.85;100.00;63675.41;5015685;28;20197;-63
2021/03/08 04:21:35;;;;;;;16.30;11.53;;;2.50;99.90;;;-141.85;100.00;63675.41;5015733;28;20616;-62
2021/03/08 04:24:05;;;;;;;16.33;11.07;;;2.40;99.90;;;-141.85;100.00;63675.41;5014436;28;20217;-62
2021/03/08 04:26:33;;;;;;;15.87;12.20;;;2.30;99.90;;;-141.85;100.00;63675.41;5015972;28;20183;-63
2021/03/08 04:29:01;;;;;;;18.07;12.43;;;2.50;99.90;;;-141.85;100.00;63675.41;5015666;28;20290;-62
2021/03/08 04:31:28;;;;;;;16.77;12.33;;;2.60;99.90;;;-141.85;100.00;63675.41;5015719;28;20258;-63
2021/03/08 04:33:57;;;;;;;18.90;12.37;;;2.50;99.90;;;-141.85;100.00;63675.41;5015636;28;20739;-61
2021/03/08 04:36:27;;;;;;;19.30;12.30;;;2.50;99.90;;;-141.85;100.00;63675.41;5015443;28;20314;-62
2021/03/08 04:38:55;;;;;;;18.20;12.63;;;2.50;99.90;;;-141.85;100.00;63675.41;5015041;28;20769;-62
2021/03/08 04:41:28;;;;;;;16.37;11.43;;;2.60;99.90;;;-141.85;100.00;63675.41;5015437;28;20726;-63
2021/03/08 04:43:57;;;;;;;17.70;12.83;;;2.60;99.90;;;-141.85;100.00;63675.41;5015610;28;20183;-62
2021/03/08 04:46:26;;;;;;;16.93;11.70;;;2.50;99.90;;;-141.85;100.00;63675.41;5015624;28;20210;-62
2021/03/08 04:48:55;;;;;;;19.67;12.23;;;2.60;99.90;;;-141.85;100.00;63675.41;5015504;28;20200;-62
2021/03/08 04:51:24;;;;;;;18.93;12.43;;;2.60;99.90;;;-141.85;100.00;63675.41;5015329;28;20230;-63
2021/03/08 04:53:53;;;;;;;17.87;12.53;;;2.70;99.90;;;-141.85;100.00;63675.41;5015166;28;20222;-63
2021/03/08 04:56:33;;;;;;;19.43;12.97;;;2.60;99.90;;;-141.85;100.00;63675.41;5015046;28;20642;-62
2021/03/08 04:59:01;;;;;;;19.87;13.73;;;2.70;99.90;;;-141.85;100.00;63675.41;5015131;28;20662;-62
2021/03/08 05:01:33;;;;;;;20.80;14.00;;;2.80;99.90;;;-141.85;100.00;63675.41;5015187;28;20202;-62
2021/03/08 05:04:06;;;;;;;19.90;13.23;;;2.80;99.90;;;-141.85;100.00;63675.41;5015163;28;20199;-62
2021/03/08 05:06:39;;;;;;;20.80;14.27;;;2.70;99.90;;;-141.85;100.00;63675.41;5015025;28;20187;-62
2021/03/08 05:09:10;;;;;;;23.47;14.73;;;2.70;99.90;;;-141.85;100.00;63675.41;5014582;28;20290;-62
2021/03/08 05:11:39;;;;;;;22.50;14.57;;;2.80;99.90;;;-141.85;100.00;63675.41;5014757;28;20302;-63
2021/03/08 05:14:10;;;;;;;25.90;15.97;;;2.80;99.90;;;-141.85;100.00;63675.41;5014676;28;20753;-61
2021/03/08 05:16:43;;;;;;;24.87;15.63;;;2.90;99.90;;;-141.85;100.00;63675.41;5015055;28;20253;-63
2021/03/08 05:19:12;;;;;;;28.80;17.40;;;2.90;99.90;;;-141.85;100.00;63675.41;5014914;28;20187;-62
2021/03/08 05:21:40;;;;;;;29.37;16.80;;;3.00;99.90;;;-141.85;100.00;63675.41;5014406;28;20208;-62
2021/03/08 05:24:11;;;;;;;32.40;16.83;;;3.00;99.90;;;-141.85;100.00;63675.41;5013849;28;20275;-62
2021/03/08 05:26:39;;;;;;;27.53;17.17;;;3.00;99.90;;;-141.85;100.00;63675.41;5014557;28;20318;-62
2021/03/08 05:29:07;;;;;;;26.93;16.87;;;3.00;99.90;;;-141.85;100.00;63675.41;5014562;28;20225;-63
2021/03/08 05:31:40;;;;;;;29.37;16.90;;;3.10;99.90;;;-141.85;100.00;63675.41;5014750;28;20219;-66
2021/03/08 05:34:10;;;;;;;28.30;16.33;;;3.10;99.90;;;-141.85;100.00;63675.41;5014976;28;20194;-62
2021/03/08 05:36:43;;;;;;;26.90;17.47;;;3.10;99.90;;;-141.85;100.00;63675.41;5013700;28;20321;-61
2021/03/08 05:39:16;;;;;;;27.40;16.63;;;3.00;99.90;;;-141.85;100.00;63675.41;5014352;28;20560;-62
2021/03/08 05:41:55;;;;;;;28.07;16.07;;;3.10;99.90;;;-141.85;100.00;63675.41;5014264;28;20242;-63
2021/03/08 05:44:28;;;;;;;31.00;16.53;;;3.20;99.90;;;-141.85;100.00;63675.41;5014452;28;20238;-63
2021/03/08 05:47:19;;;;;;;29.67;17.03;;;3.20;99.90;;;-141.85;100.00;63675.41;5014435;28;20266;-63
2021/03/08 05:50:36;;;;;;;28.17;17.27;;;3.10;99.90;;;-141.85;100.00;63675.41;5014349;28;20217;-63
2021/03/08 05:53:33;;;;;;;29.20;17.67;;;3.00;99.90;;;-141.85;100.00;63675.41;5013903;28;20198;-63
2021/03/08 05:56:23;;;;;;;32.33;18.10;;;2.90;99.90;;;-141.85;100.00;63675.41;5014119;28;20230;-62
2021/03/08 05:59:20;;;;;;;28.40;17.37;;;2.80;99.90;;;-141.85;100.00;63675.41;5013813;28;20634;-63
2021/03/08 06:02:05;;;;;;;30.57;18.33;;;2.80;99.90;;;-141.85;100.00;63675.41;5014117;28;20404;-64
2021/03/08 06:05:11;;;;;;;29.43;18.20;;;2.80;99.90;;;-141.85;100.00;63675.41;5014040;28;20180;-63
2021/03/08 06:08:34;;;;;;;28.50;17.60;;;2.90;99.90;;;-141.85;100.00;63675.41;5013507;28;20191;-63
2021/03/08 06:11:08;;;;;;;30.83;17.40;;;3.00;99.90;;;-141.85;100.00;63675.41;4986518;28;20306;-62
2021/03/08 06:13:47;;;;;;;29.30;16.53;;;3.10;99.90;;;-141.85;100.00;63675.41;5013306;28;20273;-63
2021/03/08 06:16:20;;;;;;;31.43;17.17;;;3.20;99.90;;;-141.85;100.00;63675.41;5013650;28;20212;-62
2021/03/08 06:18:54;;;;;;;30.87;17.83;;;3.10;99.90;;;-141.85;100.00;63675.41;5013477;28;20614;-63
2021/03/08 06:21:24;;;;;;;32.20;18.47;;;3.00;99.90;;;-141.85;100.00;63675.41;5013703;28;20268;-62
2021/03/08 06:23:52;;;;;;;28.17;17.70;;;2.90;99.90;;;-141.85;100.00;63675.41;5013543;28;20187;-63
2021/03/08 06:26:21;;;;;;;29.83;17.90;;;3.00;99.90;;;-141.85;100.00;63675.41;5013561;28;20247;-63
2021/03/08 06:28:50;;;;;;;29.03;17.60;;;3.10;99.90;;;-141.85;100.00;63675.41;5013487;28;20274;-63
2021/03/08 06:31:18;;;;;;;30.10;17.53;;;3.20;99.90;;;-141.85;100.00;63675.41;5013041;28;20774;-61
2021/03/08 06:33:53;;;;;;;29.37;17.33;;;3.20;99.90;;;-141.85;100.00;63675.41;5013563;28;20268;-60
2021/03/08 06:36:21;;;;;;;28.60;17.30;;;3.20;99.90;;;-141.85;100.00;63675.41;5012907;28;20260;-60
2021/03/08 06:38:49;;;;;;;28.23;17.27;;;3.30;99.90;;;-141.85;100.00;63675.41;5012749;28;20293;-61
2021/03/08 06:41:17;;;;;;;26.97;16.47;;;3.30;99.90;;;-141.85;100.00;63675.41;5012665;28;20208;-59
2021/03/08 06:43:44;;;;;;;27.23;17.10;;;3.40;99.90;;;-141.85;100.00;63675.41;5005546;28;20307;-60
2021/03/08 06:46:16;;;;;;;29.20;16.43;;;3.40;99.90;;;-141.85;100.00;63675.41;4998275;28;20208;-60
2021/03/08 06:48:44;;;;;;;27.30;17.17;;;3.40;99.90;;;-141.85;100.00;63675.41;4992929;28;20195;-61
2021/03/08 06:51:13;;;;;;;28.77;17.03;;;3.40;99.90;;;-141.85;100.00;63675.41;4996490;28;20233;-60
2021/03/08 06:53:41;;;;;;;24.40;15.23;;;3.60;99.90;;;-141.85;100.00;63675.41;4999616;28;20641;-61
2021/03/08 06:56:14;;;;;;;24.27;15.20;;;3.60;99.90;;;-141.85;100.00;63675.41;5004184;28;20761;-61
2021/03/08 06:58:42;;;;;;;26.40;16.23;;;3.70;99.90;;;-141.85;100.00;63675.41;5004122;28;20656;-59
2021/03/08 07:01:30;;;;;;;28.10;16.60;;;3.70;99.90;;;-141.85;100.00;63675.41;5004661;28;20694;-61
2021/03/08 07:04:16;;;;;;;25.80;15.53;;;3.80;99.90;;;-141.85;100.00;63675.41;5000530;28;20678;-60
2021/03/08 07:06:43;;;;;;;22.20;14.57;;;3.80;99.90;;;-141.85;100.00;63675.41;4997739;28;20276;-60
2021/03/08 07:09:14;;;;;;;25.20;15.13;;;3.70;99.90;;;-141.85;100.00;63675.41;4997246;28;20301;-59
2021/03/08 07:11:41;;;;;;;24.43;15.10;;;3.70;99.90;;;-141.85;100.00;63675.41;5000512;28;20232;-61
2021/03/08 07:14:19;;;;;;;23.30;16.00;;;3.60;99.90;;;-141.85;100.00;63675.41;5006529;28;20314;-61
2021/03/08 07:16:46;;;;;;;24.37;15.63;;;3.50;99.90;;;-141.85;100.00;63675.41;5014412;28;20216;-61
2021/03/08 07:19:14;;;;;;;27.43;15.83;;;3.60;99.90;;;-141.85;100.00;63675.41;5020455;28;20287;-60
2021/03/08 07:21:41;;;;;;;26.20;15.57;;;3.70;99.90;;;-141.85;100.00;63675.41;5007985;28;20300;-60
2021/03/08 07:24:12;;;;;;;26.47;15.27;;;3.80;99.90;;;-141.85;100.00;63675.41;4993182;28;20402;-61
2021/03/08 07:26:49;;;;;;;25.07;15.77;;;4.10;99.90;;;-141.85;100.00;63675.41;4996365;28;20201;-60
2021/03/08 07:29:18;;;;;;;24.47;15.57;;;4.10;99.90;;;-141.85;100.00;63675.41;5009269;28;20258;-61
2021/03/08 07:31:49;;;;;;;28.77;15.73;;;4.00;99.90;;;-141.85;100.00;63675.41;5000961;28;20287;-60
2021/03/08 07:34:46;;;;;;;26.57;15.33;;;3.90;99.90;;;-141.85;100.00;63675.41;4995288;28;20228;-60
2021/03/08 07:37:14;;;;;;;24.73;15.23;;;3.70;99.90;;;-141.85;100.00;63675.41;5007423;28;20243;-61
2021/03/08 07:39:51;;;;;;;25.10;15.77;;;3.60;99.90;;;-141.85;100.00;63675.41;5004534;28;20285;-62
2021/03/08 07:42:19;;;;;;;23.70;15.33;;;3.80;99.90;;;-141.85;100.00;63675.41;5003888;28;20203;-62
2021/03/08 07:44:51;;;;;;;22.90;15.33;;;3.80;99.90;;;-141.85;100.00;63675.41;5000713;28;20205;-61
2021/03/08 07:47:21;;;;;;;23.40;14.30;;;3.80;99.90;;;-141.85;100.00;63675.41;5007545;28;20238;-59
2021/03/08 07:49:49;;;;;;;22.67;14.27;;;3.70;99.90;;;-141.85;100.00;63675.41;5009593;28;20210;-61
2021/03/08 07:52:17;;;;;;;24.33;14.87;;;3.60;99.90;;;-141.85;100.00;63675.41;5009292;28;20227;-59
2021/03/08 07:54:56;;;;;;;21.83;14.53;;;3.50;99.90;;;-141.85;100.00;63675.41;5009710;28;20601;-59
2021/03/08 07:57:26;;;;;;;23.83;15.13;;;3.60;99.90;;;-141.85;100.00;63675.41;5009634;28;20187;-60
2021/03/08 07:59:54;;;;;;;28.37;14.60;;;3.60;99.90;;;-141.85;100.00;63675.41;5010947;28;20298;-60
2021/03/08 08:02:22;;;;;;;25.93;15.40;;;3.70;99.90;;;-141.85;100.00;63675.41;5012912;28;20311;-61
2021/03/08 08:05:01;;;;;;;23.33;13.83;;;3.70;99.90;;;-141.85;100.00;63675.41;5013063;28;20275;-61
2021/03/08 08:07:31;;;;;;;22.13;14.50;;;3.70;99.90;;;-141.85;100.00;63675.41;5012572;28;20235;-61
2021/03/08 08:10:04;;;;;;;22.70;14.30;;;3.80;99.90;;;-141.85;100.00;63675.41;5016910;28;20222;-61
2021/03/08 08:12:34;;;;;;;19.43;12.80;;;3.60;99.90;;;-141.85;100.00;63675.41;5030464;28;20191;-61
2021/03/08 08:15:04;;;;;;;16.37;10.93;;;3.60;99.90;;;-141.85;100.00;63675.41;5032624;28;20189;-61
2021/03/08 08:17:36;;;;;;;17.00;10.73;;;3.60;99.90;;;-141.85;100.00;63675.41;5032583;28;20222;-62
2021/03/08 08:20:06;;;;;;;17.53;10.30;;;3.60;99.90;;;-141.85;100.00;63675.41;5032790;28;20184;-59
2021/03/08 08:22:35;;;;;;;15.07;9.40;;;3.70;99.90;;;-141.85;100.00;63675.41;5031753;28;20554;-61
2021/03/08 08:25:06;;;;;;;15.60;9.53;;;3.70;99.90;;;-141.85;100.00;63675.41;5032256;28;20219;-61
2021/03/08 08:27:34;;;;;;;14.33;8.97;;;3.70;99.90;;;-141.85;100.00;63675.41;5032223;28;20270;-60
2021/03/08 08:30:03;;;;;;;15.30;9.53;;;3.90;99.90;;;-141.85;100.00;63675.41;5031706;28;20210;-62
2021/03/08 08:32:51;;;;;;;15.00;8.93;;;4.00;99.90;;;-141.85;100.00;63675.41;5032418;28;20321;-60
2021/03/08 08:35:28;;;;;;;13.47;9.23;;;3.90;99.90;;;-141.85;100.00;63675.41;5031925;28;20243;-60
2021/03/08 08:38:21;;;;;;;15.37;9.90;;;3.90;99.90;;;-141.85;100.00;63675.41;5031837;28;20596;-59
2021/03/08 08:41:20;;;;;;;12.80;8.20;;;4.00;99.90;;;-141.85;100.00;63675.41;5020254;28;20738;-61
2021/03/08 08:44:09;;;;;;;14.33;9.33;;;4.10;99.90;;;-141.85;100.00;63675.41;5013137;28;20203;-60
2021/03/08 08:46:37;;;;;;;15.23;9.30;;;4.10;99.90;;;-141.85;100.00;63675.41;4992430;28;20208;-60
2021/03/08 08:49:11;;;;;;;13.00;9.30;;;4.40;99.90;;;-141.85;100.00;63675.41;4994736;28;20243;-60
2021/03/08 08:51:51;;;;;;;14.20;9.30;;;4.30;99.90;;;-141.85;100.00;63675.41;5000692;28;20226;-61
2021/03/08 08:54:55;;;;;;;14.20;9.57;;;4.20;99.90;;;-141.85;100.00;63675.41;4992428;28;20535;-62
2021/03/08 08:57:22;;;;;;;15.47;9.33;;;4.20;99.90;;;-141.85;100.00;63675.41;4948392;28;20685;-63
2021/03/08 09:00:20;;;;;;;17.23;10.00;;;4.20;99.90;;;-141.85;100.00;63675.41;4991954;28;20214;-64
2021/03/08 09:02:48;;;;;;;14.17;9.23;;;4.20;99.90;;;-141.85;100.00;63675.41;5006100;28;20205;-63
2021/03/08 09:05:40;;;;;;;12.90;8.90;;;4.50;99.90;;;-141.85;100.00;63675.41;5021138;28;20315;-61
2021/03/08 09:08:30;;;;;;;15.20;9.67;;;4.90;99.90;;;-141.85;100.00;63675.41;5019108;28;20263;-61
2021/03/08 09:11:01;;;;;;;13.10;8.67;;;4.80;99.90;;;-141.85;100.00;63675.41;5018423;28;20243;-60
2021/03/08 09:13:29;;;;;;;13.83;8.63;;;4.80;99.90;;;-141.85;100.00;63675.41;5017886;28;20276;-61
2021/03/08 09:15:58;;;;;;;12.83;8.07;;;4.60;99.90;;;-141.85;100.00;63675.41;5020756;28;20196;-61
2021/03/08 09:18:35;;;;;;;11.73;7.90;;;4.80;99.90;;;-141.85;100.00;63675.41;5013908;28;20247;-61
2021/03/08 09:21:23;;;;;;;13.00;9.20;;;5.00;99.90;;;-141.85;100.00;63675.41;5011131;28;20190;-62
2021/03/08 09:23:50;;;;;;;13.23;8.80;;;5.10;99.90;;;-141.85;100.00;63675.41;5011182;28;20186;-60
2021/03/08 09:26:18;;;;;;;12.97;8.63;;;5.10;99.90;;;-141.85;100.00;63675.41;5010995;28;20552;-60
2021/03/08 09:28:50;;;;;;;13.47;8.13;;;5.10;99.90;;;-141.85;100.00;63675.41;5011343;28;20276;-60
2021/03/08 09:31:23;;;;;;;12.23;7.93;;;4.90;99.90;;;-141.85;100.00;63675.41;5011004;28;20219;-60
2021/03/08 09:33:51;;;;;;;10.43;7.10;;;4.70;99.90;;;-141.85;100.00;63675.41;5009963;28;20190;-59
2021/03/08 09:36:20;;;;;;;10.20;6.87;;;4.70;99.90;;;-141.85;100.00;63675.41;5010530;28;20341;-60
2021/03/08 09:38:49;;;;;;;9.97;7.37;;;4.60;99.90;;;-141.85;100.00;63675.41;5010956;28;20210;-60
2021/03/08 09:41:17;;;;;;;10.60;6.97;;;4.60;99.90;;;-141.85;100.00;63675.41;5010974;28;20229;-59
2021/03/08 09:43:44;;;;;;;9.87;7.07;;;4.80;99.90;;;-141.85;100.00;63675.41;5010748;28;20206;-60
2021/03/08 09:46:15;;;;;;;9.60;6.20;;;5.00;99.90;;;-141.85;100.00;63675.41;5011081;28;20601;-61
2021/03/08 09:48:54;;;;;;;8.67;5.90;;;5.10;99.90;;;-141.85;100.00;63675.41;5002681;28;20293;-60
2021/03/08 09:51:23;;;;;;;7.63;5.50;;;5.20;99.90;;;-141.85;100.00;63675.41;4991087;28;20220;-61
2021/03/08 09:53:54;;;;;;;9.77;5.80;;;4.90;99.90;;;-141.85;100.00;63675.41;4991075;28;20202;-62
2021/03/08 09:56:24;;;;;;;8.40;6.13;;;4.70;99.90;;;-141.85;100.00;63675.41;4991325;28;20197;-61
2021/03/08 09:59:00;;;;;;;9.07;6.10;;;4.70;99.90;;;-141.85;100.00;63675.41;4990929;28;20238;-61
2021/03/08 10:01:28;;;;;;;8.57;5.77;;;4.80;99.90;;;-141.85;100.00;63675.41;4991102;28;20187;-60
2021/03/08 10:03:56;;;;;;;7.90;5.43;;;4.80;99.90;;;-141.85;100.00;63675.41;4991339;28;20292;-61
2021/03/08 10:06:45;;;;;;;8.30;5.20;;;4.80;99.90;;;-141.85;100.00;63675.41;4990398;28;20218;-62
2021/03/08 10:09:20;;;;;;;7.27;4.00;;;4.70;99.90;;;-141.85;100.00;63675.41;4990836;28;20211;-59
2021/03/08 10:11:48;;;;;;;6.80;4.50;;;4.70;99.90;;;-141.85;100.00;63675.41;4990527;28;20226;-62
2021/03/08 10:14:25;;;;;;;6.70;4.50;;;4.50;99.90;;;-141.85;100.00;63675.41;4990777;28;20275;-59
2021/03/08 10:17:04;;;;;;;7.80;4.70;;;4.40;99.90;;;-141.85;100.00;63675.41;4991138;28;20207;-61
2021/03/08 10:19:33;;;;;;;8.50;5.30;;;4.40;99.90;;;-141.85;100.00;63675.41;4990997;28;20186;-61
2021/03/08 10:22:03;;;;;;;6.40;5.13;;;4.60;99.90;;;-141.85;100.00;63675.41;4990550;28;20320;-61
2021/03/08 10:24:35;;;;;;;6.30;4.53;;;4.80;99.90;;;-141.85;100.00;63675.41;4990450;28;20657;-61